Flight Track Log - Related Links

Times and Time Zones

All times are in EST time to prevent confusion due to time zone crossing. See the ASA128 flight status page for this flight to view local times or setup timezone preferences in your user account.

Time Position Orientation Groundspeed Altitude Reporting Facility
EST Latitude Longitude Course Direction KTS MPH feet Rate Location/Type
Wed 05:29:35 AM 64.7000 -147.7667 121° Southeast 250 288 5,100  Level Anchorage Center
Wed 05:30:36 AM 64.6833 -147.5833 102° East 290 334 7,800 2,529 Climbing Anchorage Center
Wed 05:31:36 AM 64.6667 -147.4000 102° East 310 357 10,200 2,500 Climbing Anchorage Center
Wed 05:32:36 AM 64.6500 -147.1833 100° East 320 368 12,800 2,132 Climbing Anchorage Center
Wed 05:33:37 AM 64.6167 -147.0000 113° Southeast 350 403 14,500 2,331 Climbing Anchorage Center
Wed 05:34:00 AM 64.2483 -146.2859 125° Southeast  Level Estimated
Wed 05:34:37 AM 64.5500 -146.7833 126° Southeast 370 426 17,500  Level Anchorage Center
Wed 05:35:00 AM 64.1837 -146.0373 121° Southeast  Level FlightAware
Wed 05:35:38 AM 64.4833 -146.6000 130° Southeast 380 437 20,400  Level Anchorage Center
Wed 05:36:38 AM 64.4333 -146.3833 118° Southeast 390 449 22,800 2,200 Climbing Anchorage Center
Wed 05:37:38 AM 64.3667 -146.1667 125° Southeast 400 460 24,800 1,934 Climbing Anchorage Center
Wed 05:38:39 AM 64.3000 -145.9500 125° Southeast 410 472 26,700 1,488 Climbing Anchorage Center
Wed 05:39:39 AM 64.2333 -145.7333 125° Southeast 430 495 27,800 1,250 Climbing Anchorage Center
Wed 05:40:39 AM 64.1500 -145.4833 127° Southeast 450 518 29,200 1,240 Climbing Anchorage Center
Wed 05:41:40 AM 64.0833 -145.2500 123° Southeast 460 529 30,300 1,140 Climbing Anchorage Center
Wed 05:42:40 AM 64.0000 -145.0000 127° Southeast 470 541 31,500 1,450 Climbing Anchorage Center
Wed 05:43:40 AM 63.9333 -144.7667 123° Southeast 470 541 33,200 1,240 Climbing Anchorage Center
Wed 05:44:41 AM 63.8500 -144.5500 131° Southeast 480 552 34,000 744 Climbing Anchorage Center
Wed 05:45:41 AM 63.7667 -144.3000 127° Southeast 490 564 34,700 850 Climbing Anchorage Center
Wed 05:46:41 AM 63.6833 -144.0667 129° Southeast 490 564 35,700 1,140 Climbing Anchorage Center
Wed 05:47:42 AM 63.6167 -143.8000 119° Southeast 500 575 37,000 645 Climbing Anchorage Center
Wed 05:48:42 AM 63.5333 -143.5667 129° Southeast 480 552 37,000  Level Anchorage Center
Wed 05:49:43 AM 63.4500 -143.3333 129° Southeast 480 552 37,000  Level Anchorage Center
Wed 05:50:43 AM 63.3667 -143.1000 128° Southeast 480 552 37,000  Level Anchorage Center
Wed 06:09:50 AM 61.5167 -139.2833 148° Southeast 480 552 37,000  Level Anchorage Center
Wed 06:10:00 AM 61.6878 -139.5809 140° Southeast  Level FlightAware
Wed 06:10:50 AM 61.4167 -139.1167 141° Southeast 470 541 37,000  Level Anchorage Center
Wed 06:11:00 AM 61.5895 -139.4087 140° Southeast  Level FlightAware
Wed 06:11:50 AM 61.3000 -138.9333 143° Southeast 480 552 37,000  Level Anchorage Center
Wed 06:12:00 AM 61.4910 -139.2375 140° Southeast  Level FlightAware
Wed 06:12:51 AM 61.2000 -138.8000 147° Southeast 480 552 37,000  Level Anchorage Center
Wed 06:13:00 AM 61.3923 -139.0675 140° Southeast  Level FlightAware
Wed 06:13:51 AM 61.0833 -138.6500 148° Southeast 480 552 37,000  Level Anchorage Center
Wed 06:14:00 AM 61.2877 -138.9070 148° Southeast  Level FlightAware
Wed 06:14:52 AM 60.9667 -138.5000 148° Southeast 480 552 37,000  Level Anchorage Center
Wed 06:15:00 AM 61.1793 -138.7661 148° Southeast  Level FlightAware
Wed 06:15:52 AM 60.8500 -138.3500 148° Southeast 490 564 37,000  Level Anchorage Center
Wed 06:16:52 AM 60.7333 -138.2000 148° Southeast 480 552 37,000  Level Anchorage Center
Wed 06:17:53 AM 60.6167 -138.0667 151° Southeast 490 564 37,000  Level Anchorage Center
Wed 06:18:53 AM 60.5000 -137.9167 148° Southeast 480 552 37,000  Level Anchorage Center
Wed 06:19:53 AM 60.3833 -137.7667 148° Southeast 490 564 37,000  Level Anchorage Center
Wed 06:20:54 AM 60.2667 -137.6333 150° Southeast 480 552 37,000  Level Anchorage Center
Wed 06:21:54 AM 60.1500 -137.4833 147° Southeast 480 552 37,000  Level Anchorage Center
Wed 06:22:54 AM 60.0333 -137.3500 150° Southeast 480 552 37,000  Level Anchorage Center
Wed 06:23:55 AM 59.9167 -137.2167 150° Southeast 490 564 37,000  Level Anchorage Center
Wed 06:24:55 AM 59.8000 -137.0667 147° Southeast 500 575 37,000  Level Anchorage Center
Wed 06:25:55 AM 59.6833 -136.9333 150° Southeast 490 564 37,000  Level Anchorage Center
Wed 06:26:56 AM 59.5667 -136.7833 147° Southeast 490 564 37,000  Level Anchorage Center
Wed 06:27:56 AM 59.4500 -136.6500 150° Southeast 500 575 37,000  Level Anchorage Center
Wed 06:28:56 AM 59.3167 -136.5000 150° Southeast 510 587 37,000  Level Anchorage Center
Wed 06:29:57 AM 59.2000 -136.3667 150° Southeast 500 575 37,000  Level Anchorage Center
Wed 06:30:57 AM 59.0833 -136.2333 150° Southeast 490 564 37,000  Level Anchorage Center
Wed 06:31:58 AM 58.9667 -136.1000 149° Southeast 490 564 37,000  Level Anchorage Center
Wed 06:32:58 AM 58.8500 -135.9667 149° Southeast 490 564 37,000  Level Anchorage Center
Wed 06:33:58 AM 58.7333 -135.8500 153° Southeast 480 552 37,000  Level Anchorage Center
Wed 06:34:59 AM 58.6167 -135.7333 152° Southeast 480 552 37,000  Level Anchorage Center
Wed 06:35:59 AM 58.5000 -135.6000 149° Southeast 490 564 37,000  Level Anchorage Center
Wed 06:36:59 AM 58.3667 -135.4667 152° Southeast 500 575 37,000  Level Anchorage Center
Wed 06:38:00 AM 58.2500 -135.3333 149° Southeast 490 564 37,000  Level Anchorage Center
Wed 06:39:00 AM 58.1333 -135.2000 149° Southeast 490 564 37,000  Level Anchorage Center
Wed 06:40:00 AM 58.0333 -135.0167 136° Southeast 510 587 37,000 248 Level Anchorage Center
Wed 06:41:01 AM 57.9167 -134.8333 140° Southeast 520 598 37,500 645 Climbing Anchorage Center
Wed 06:42:01 AM 57.8167 -134.6500 136° Southeast 520 598 38,300 750 Climbing Anchorage Center
Wed 06:43:01 AM 57.7000 -134.4833 143° Southeast 510 587 39,000 347 Climbing Anchorage Center
Wed 06:44:02 AM 57.6000 -134.3167 138° Southeast 510 587 39,000  Level Anchorage Center
Wed 06:45:02 AM 57.5000 -134.1333 135° Southeast 510 587 39,000  Level Anchorage Center
Wed 06:46:03 AM 57.3833 -133.9667 142° Southeast 500 575 39,000  Level Anchorage Center
Wed 06:47:03 AM 57.2833 -133.8000 138° Southeast 500 575 39,000  Level Anchorage Center
Wed 06:48:03 AM 57.1667 -133.6333 142° Southeast 500 575 39,000  Level Anchorage Center
Wed 06:49:03 AM 57.0667 -133.4667 138° Southeast 500 575 39,000  Level Anchorage Center
Wed 06:50:03 AM 56.9667 -133.3167 141° Southeast 500 575 39,000  Level Anchorage Center
Wed 06:51:04 AM 56.8500 -133.1500 142° Southeast 510 587 39,000  Level Anchorage Center
Wed 06:52:04 AM 56.7500 -132.9833 138° Southeast 510 587 39,000  Level Anchorage Center
Wed 06:53:04 AM 56.6333 -132.8167 142° Southeast 510 587 39,000  Level Anchorage Center
Wed 06:54:05 AM 56.5333 -132.6500 137° Southeast 500 575 39,000  Level Anchorage Center
Wed 06:55:05 AM 56.4167 -132.5000 145° Southeast 500 575 39,000  Level Anchorage Center
Wed 06:56:05 AM 56.3167 -132.3333 137° Southeast 490 564 39,000  Level Anchorage Center
Wed 06:57:06 AM 56.2000 -132.1833 144° Southeast 500 575 39,000  Level Anchorage Center
Wed 06:58:06 AM 56.1000 -132.0167 137° Southeast 490 564 39,000  Level Anchorage Center
Wed 06:59:06 AM 55.9833 -131.8667 144° Southeast 500 575 39,000  Level Anchorage Center
Wed 07:00:07 AM 55.8833 -131.7167 140° Southeast 510 587 39,000  Level Anchorage Center
Wed 07:01:07 AM 55.7667 -131.5667 144° Southeast 500 575 39,000  Level Anchorage Center
Wed 07:02:08 AM 55.6667 -131.4000 137° Southeast 510 587 39,000  Level Anchorage Center
Wed 07:03:08 AM 55.5333 -131.2333 145° Southeast 510 587 39,000  Level Anchorage Center
Wed 07:04:08 AM 55.4333 -131.0833 140° Southeast 520 598 39,000  Level Anchorage Center
Wed 07:05:09 AM 55.3167 -130.9167 141° Southeast 510 587 39,000  Level Anchorage Center
Wed 07:06:09 AM 55.2000 -130.7667 144° Southeast 520 598 39,000  Level Anchorage Center
Wed 07:07:09 AM 55.0833 -130.6167 144° Southeast 520 598 39,000  Level Anchorage Center
Wed 07:08:10 AM 54.9833 -130.4667 139° Southeast 520 598 39,000  Level Anchorage Center
Wed 07:09:50 AM 54.7833 -130.2500 148° Southeast 530 610 39,000  Level Vancouver Center
Wed 07:10:50 AM 54.6500 -130.0833 144° Southeast 530 610 39,000  Level Vancouver Center
Wed 07:11:50 AM 54.5500 -129.9333 139° Southeast 530 610 39,000  Level Vancouver Center
Wed 07:12:50 AM 54.4167 -129.7667 144° Southeast 520 598 39,000  Level Vancouver Center
Wed 07:13:50 AM 54.3167 -129.6333 142° Southeast 520 598 39,000  Level Vancouver Center
Wed 07:14:50 AM 54.2000 -129.4833 143° Southeast 520 598 39,000  Level Vancouver Center
Wed 07:15:50 AM 54.0833 -129.3500 146° Southeast 520 598 39,000  Level Vancouver Center
Wed 07:16:50 AM 53.9667 -129.1833 140° Southeast 520 598 39,000  Level Vancouver Center
Wed 07:17:50 AM 53.8500 -129.0333 143° Southeast 510 587 39,000  Level Vancouver Center
Wed 07:18:50 AM 53.7333 -128.9000 146° Southeast 520 598 39,000  Level Vancouver Center
Wed 07:19:50 AM 53.6167 -128.7500 143° Southeast 510 587 39,000  Level Vancouver Center
Wed 07:20:50 AM 53.5167 -128.6333 145° Southeast 510 587 39,000  Level Vancouver Center
Wed 07:21:50 AM 53.3833 -128.4667 143° Southeast 500 575 39,000  Level Vancouver Center
Wed 07:22:50 AM 53.2833 -128.3500 145° Southeast 510 587 39,000  Level Vancouver Center
Wed 07:23:50 AM 53.1667 -128.2000 142° Southeast 510 587 39,000  Level Vancouver Center
Wed 07:24:50 AM 53.0500 -128.0833 149° Southeast 520 598 39,000  Level Vancouver Center
Wed 07:25:50 AM 52.9167 -127.9167 143° Southeast 510 587 39,000  Level Vancouver Center
Wed 07:26:50 AM 52.8167 -127.8000 145° Southeast 510 587 39,000  Level Vancouver Center
Wed 07:27:50 AM 52.7000 -127.6500 142° Southeast 510 587 39,000  Level Vancouver Center
Wed 07:28:50 AM 52.5833 -127.5333 149° Southeast 510 587 39,000  Level Vancouver Center
Wed 07:29:50 AM 52.4667 -127.3833 142° Southeast 510 587 39,000  Level Vancouver Center
Wed 07:30:50 AM 52.3500 -127.2333 142° Southeast 510 587 39,000  Level Vancouver Center
Wed 07:31:50 AM 52.2333 -127.1167 149° Southeast 510 587 39,000  Level Vancouver Center
Wed 07:32:50 AM 52.1167 -126.9833 145° Southeast 510 587 39,000  Level Vancouver Center
Wed 07:33:50 AM 52.0000 -126.8667 148° Southeast 510 587 39,000  Level Vancouver Center
Wed 07:34:50 AM 51.8833 -126.7500 148° Southeast 510 587 39,000  Level Vancouver Center
Wed 07:35:50 AM 51.7667 -126.6000 141° Southeast 520 598 39,000  Level Vancouver Center
Wed 07:36:50 AM 51.6500 -126.4667 145° Southeast 520 598 39,000  Level Vancouver Center
Wed 07:37:50 AM 51.5167 -126.3167 145° Southeast 520 598 39,000  Level Vancouver Center
Wed 07:38:50 AM 51.4000 -126.2000 148° Southeast 520 598 39,000  Level Vancouver Center
Wed 07:39:50 AM 51.2833 -126.1000 152° Southeast 520 598 39,000  Level Vancouver Center
Wed 07:40:50 AM 51.1667 -125.9500 141° Southeast 520 598 39,000  Level Vancouver Center
Wed 07:41:50 AM 51.0500 -125.8167 144° Southeast 510 587 39,000  Level Vancouver Center
Wed 07:42:50 AM 50.9333 -125.7000 148° Southeast 510 587 39,000  Level Vancouver Center
Wed 07:43:50 AM 50.8167 -125.5667 144° Southeast 510 587 39,000  Level Vancouver Center
Wed 07:44:50 AM 50.7000 -125.4667 151° Southeast 510 587 39,000  Level Vancouver Center
Wed 07:45:50 AM 50.5833 -125.3167 141° Southeast 510 587 39,000  Level Vancouver Center
Wed 07:46:50 AM 50.4667 -125.2167 151° Southeast 510 587 39,000  Level Vancouver Center
Wed 07:47:50 AM 50.3333 -125.0833 147° Southeast 510 587 39,000  Level Vancouver Center
Wed 07:48:50 AM 50.2167 -124.9667 147° Southeast 510 587 39,000  Level Vancouver Center
Wed 07:49:50 AM 50.1000 -124.8333 144° Southeast 500 575 39,000  Level Vancouver Center
Wed 07:50:50 AM 49.9833 -124.7333 151° Southeast 500 575 39,000  Level Vancouver Center
Wed 07:51:50 AM 49.8667 -124.6000 144° Southeast 500 575 39,000  Level Vancouver Center
Wed 07:52:50 AM 49.7500 -124.5000 151° Southeast 500 575 39,000  Level Vancouver Center
Wed 07:53:50 AM 49.6333 -124.3667 143° Southeast 500 575 39,000  Level Vancouver Center
Wed 07:54:50 AM 49.5167 -124.2667 151° Southeast 500 575 39,000  Level Vancouver Center
Wed 07:55:50 AM 49.4000 -124.1667 151° Southeast 500 575 39,000 -300 Level Vancouver Center
Wed 07:56:50 AM 49.2833 -124.0333 143° Southeast 480 552 38,400 -1,000 Descending Vancouver Center
Wed 07:57:50 AM 49.1833 -123.9500 151° Southeast 460 529 37,000 -2,000 Descending Vancouver Center
Wed 07:58:50 AM 49.0667 -123.8167 143° Southeast 460 529 34,400 -2,600 Descending Vancouver Center
Wed 07:59:50 AM 48.9667 -123.7167 147° Southeast 460 529 31,800 -2,700 Descending Vancouver Center
Wed 08:00:50 AM 48.8500 -123.6167 151° Southeast 470 541 29,000 -2,550 Descending Vancouver Center
Wed 08:01:50 AM 48.7500 -123.5167 147° Southeast 470 541 26,700 -2,250 Descending Vancouver Center
Wed 08:02:50 AM 48.6333 -123.4000 147° Southeast 470 541 24,500 -2,150 Descending Vancouver Center
Wed 08:03:50 AM 48.5500 -123.2667 133° Southeast 460 529 22,400 -2,000 Descending Vancouver Center
Wed 08:04:50 AM 48.4500 -123.1500 142° Southeast 440 506 20,500 -1,596 Descending Vancouver Center
Wed 08:05:39 AM 48.4064 -123.0553 125° Southeast 437 503 19,500 -1,364 Descending Seattle Center
Wed 08:06:40 AM 48.3236 -122.9311 135° Southeast 426 490 18,000 -1,612 Descending Seattle Center
Wed 08:06:46 AM 48.3131 -122.9136 132° Southeast 419 482 17,700 -250 Descending Seattle Center
Wed 08:07:04 AM 48.2872 -122.8711 132° Southeast 412 474 17,900 -556 Climbing Seattle Center
Wed 08:07:40 AM 48.2506 -122.8008 128° Southeast 407 468 17,200 -1,279 Descending Seattle Center
Wed 08:08:05 AM 48.2197 -122.7489 132° Southeast 385 443 16,600 -1,300 Descending Seattle Center
Wed 08:08:40 AM 48.1819 -122.6814 130° Southeast 379 436 15,900 -1,300 Descending Seattle Center
Wed 08:09:05 AM 48.1494 -122.6253 131° Southeast 362 417 15,300 -1,500 Descending Seattle Center
Wed 08:09:40 AM 48.1169 -122.5656 129° Southeast 365 420 14,400 -2,507 Descending Seattle Center
Wed 08:10:12 AM 48.0728 -122.5050 137° Southeast 375 432 12,500 -3,500 Descending Seattle Center
Wed 08:10:40 AM 48.0294 -122.4778 157° South 374 430 10,900 -2,300 Descending Seattle Center
Wed 08:11:12 AM 47.9736 -122.4542 164° South 386 444 10,200 -700 Descending Seattle Center
Wed 08:11:40 AM 47.9328 -122.4347 162° South 364 419 10,200 -590 Level Seattle Center
Wed 08:12:13 AM 47.8856 -122.4136 163° South 313 360 9,600 -885 Descending Seattle Center
Wed 08:12:41 AM 47.8492 -122.3961 162° South 312 359 9,300 -1,869 Descending Seattle Center
Wed 08:13:14 AM 47.8006 -122.3750 164° South 289 333 7,700 -2,800 Descending Seattle Center
Wed 08:13:41 AM 47.7689 -122.3617 164° South 297 342 6,500 -2,600 Descending Seattle Center
Wed 08:14:14 AM 47.7233 -122.3419 164° South 287 330 5,100 -2,000 Descending Seattle Center
Wed 08:14:41 AM 47.6939 -122.3286 163° South 286 329 4,500 -985 Descending Seattle Center
Wed 08:15:21 AM 47.6525 -122.3086 162° South 232 267 4,000 -600 Descending Seattle Center
Wed 08:15:41 AM 47.6322 -122.3061 175° South 246 283 3,900 -1,100 Descending Seattle Center
Wed 08:16:21 AM 47.5900 -122.3069 181° South 219 252 2,900 -1,300 Descending Seattle Center
Wed 08:16:41 AM 47.5711 -122.3072 181° South 223 257 2,600 -1,082 Descending Seattle Center
Wed 08:17:22 AM 47.5328 -122.3092 182° South 208 239 1,800 -1,100 Descending Seattle Center
Wed 08:17:41 AM 47.5136 -122.3078 177° South 190 219 1,500 -885 Descending Seattle Center
Wed 08:18:23 AM 47.4878 -122.3075 180° South 148 170 900 -787 Descending Seattle Center
Wed 08:18:42 AM 47.4719 -122.3081 181° South 154 177 700 -380 Descending Seattle Center
Wed 08:19:42 AM 47.4336 -122.3097 182° South 151 174 400 -300 Descending Seattle Center
Wed 08:21:00 AM 47.4333 -122.3000 North  Level FlightAware

Login

Don't have an account? Register now (free) for customized features, flight alerts, and more!